KCMH/CMH METAR and TAF weather

Enter ICAO airport designator
Station Type Date Time Source
KCMH METAR 2019/08/24 19:51 UTC NOAA

KCMH 241951Z 03009KT 10SM SCT060 SCT200 24/10 A3018 RMK AO2 SLP217 T02390100 $


Station Type Date Time Source
KCMH Decoded METAR 2019/08/24 19:51 UTC NOAA

Station name not available
Aug 24, 2019 - 03:51 PM EDT / 2019.08.24 1951 UTC
Wind: from the NNE (030 degrees) at 10 MPH (9 KT):0
Visibility: 10 mile(s):0
Sky conditions: partly cloudy
Temperature: 75.0 F (23.9 C)
Dew Point: 50.0 F (10.0 C)
Relative Humidity: 41%
Pressure (altimeter): 30.18 in. Hg (1022 hPa)
ob: KCMH 241951Z 03009KT 10SM SCT060 SCT200 24/10 A3018 RMK AO2 SLP217 T02390100
cycle: 20

Station Type Date Time Source
KCMH TAF 2019/08/24 18:33 UTC NOAA

TAF KCMH 241731Z 2418/2518 07011KT P6SM SCT040
FM242300 05005KT P6SM SKC
FM251500 10009KT P6SM SCT040 SCT250

Example: see airport list